createdAt,value
2018-12-25T00:01:23.911Z,100.00
2018-12-25T00:03:55.376Z,100.00
2018-12-25T00:06:27.090Z,100.00
2018-12-25T00:08:58.423Z,100.00
2018-12-25T00:12:56.541Z,100.00
2018-12-25T00:15:28.074Z,100.00
2018-12-25T00:17:59.659Z,100.00
2018-12-25T00:20:33.327Z,100.00
2018-12-25T00:23:04.184Z,100.00
2018-12-25T00:25:35.738Z,100.00
2018-12-25T00:28:07.255Z,100.00
2018-12-25T00:30:38.709Z,100.00
2018-12-25T00:33:09.972Z,100.00
2018-12-25T00:35:41.359Z,100.00
2018-12-25T00:38:12.651Z,100.00
2018-12-25T00:40:43.978Z,100.00
2018-12-25T00:43:15.312Z,100.00
2018-12-25T00:45:46.599Z,100.00
2018-12-25T00:48:17.843Z,100.00
2018-12-25T00:50:49.227Z,100.00
2018-12-25T00:53:20.662Z,100.00
2018-12-25T00:55:51.981Z,100.00
2018-12-25T00:58:23.290Z,100.00
2018-12-25T01:00:54.597Z,100.00
2018-12-25T01:03:26.236Z,100.00
2018-12-25T01:05:57.584Z,100.00
2018-12-25T01:08:28.852Z,100.00
2018-12-25T01:11:00.190Z,100.00
2018-12-25T01:13:31.551Z,100.00
2018-12-25T01:16:02.905Z,100.00
2018-12-25T01:18:34.214Z,100.00
2018-12-25T01:21:05.492Z,100.00
2018-12-25T01:23:36.893Z,100.00
2018-12-25T01:26:08.170Z,100.00
2018-12-25T01:28:39.437Z,100.00
2018-12-25T01:31:10.718Z,100.00
2018-12-25T01:33:41.987Z,100.00
2018-12-25T01:36:13.328Z,100.00
2018-12-25T01:38:44.566Z,100.00
2018-12-25T01:41:15.879Z,100.00
2018-12-25T01:43:47.190Z,100.00
2018-12-25T01:46:18.460Z,100.00
2018-12-25T01:48:49.707Z,100.00
2018-12-25T01:51:21.007Z,100.00
2018-12-25T01:53:53.820Z,100.00
2018-12-25T01:56:25.164Z,100.00
2018-12-25T01:58:56.398Z,100.00
2018-12-25T02:01:27.713Z,100.00
2018-12-25T02:03:58.968Z,100.00
2018-12-25T02:06:30.249Z,100.00
2018-12-25T02:09:01.563Z,100.00
2018-12-25T02:11:32.806Z,100.00
2018-12-25T02:14:04.064Z,100.00
2018-12-25T02:16:35.367Z,100.00
2018-12-25T02:19:06.642Z,100.00
2018-12-25T02:21:37.972Z,100.00
2018-12-25T02:24:09.257Z,100.00
2018-12-25T02:26:40.518Z,100.00
2018-12-25T02:29:11.792Z,100.00
2018-12-25T02:31:43.112Z,100.00
2018-12-25T02:34:14.337Z,100.00
2018-12-25T02:36:45.623Z,100.00
2018-12-25T02:39:16.851Z,100.00
2018-12-25T02:41:48.010Z,100.00
2018-12-25T02:44:19.329Z,100.00
2018-12-25T02:46:50.641Z,100.00
2018-12-25T02:49:21.910Z,100.00
2018-12-25T02:51:53.147Z,100.00
2018-12-25T02:54:26.693Z,100.00
2018-12-25T02:56:57.745Z,100.00
2018-12-25T02:59:29.035Z,100.00
2018-12-25T03:02:00.251Z,100.00
2018-12-25T03:04:31.535Z,100.00
2018-12-25T03:07:02.796Z,100.00
2018-12-25T03:09:34.093Z,100.00
2018-12-25T03:12:05.433Z,100.00
2018-12-25T03:14:36.692Z,100.00
2018-12-25T03:17:07.855Z,100.00
2018-12-25T03:19:39.143Z,100.00
2018-12-25T03:22:10.411Z,100.00
2018-12-25T03:24:41.673Z,100.00
2018-12-25T03:27:12.946Z,100.00
2018-12-25T03:29:44.176Z,100.00
2018-12-25T03:32:15.430Z,100.00
2018-12-25T03:34:46.612Z,100.00
2018-12-25T03:37:17.873Z,100.00
2018-12-25T03:39:49.138Z,100.00
2018-12-25T03:42:20.432Z,100.00
2018-12-25T03:44:51.696Z,100.00
2018-12-25T03:47:22.850Z,100.00
2018-12-25T03:49:54.049Z,100.00
2018-12-25T03:52:25.245Z,100.00
2018-12-25T03:54:56.531Z,100.00
2018-12-25T03:57:27.897Z,100.00
2018-12-25T03:59:59.135Z,100.00
2018-12-25T04:02:30.321Z,100.00
2018-12-25T04:05:01.622Z,100.00
2018-12-25T04:07:32.847Z,100.00
2018-12-25T04:10:04.172Z,100.00
2018-12-25T04:12:35.453Z,100.00
2018-12-25T04:15:06.939Z,100.00
2018-12-25T04:17:38.121Z,100.00
2018-12-25T04:20:19.550Z,100.00
2018-12-25T04:22:43.013Z,100.00
2018-12-25T04:25:14.247Z,100.00
2018-12-25T04:27:45.630Z,100.00
2018-12-25T04:32:49.568Z,100.00
2018-12-25T04:35:20.800Z,100.00
2018-12-25T04:37:52.156Z,100.00
2018-12-25T04:40:23.407Z,100.00
2018-12-25T04:42:54.536Z,100.00
2018-12-25T04:45:25.736Z,100.00
2018-12-25T04:47:56.934Z,100.00
2018-12-25T04:50:29.476Z,100.00
2018-12-25T04:53:01.116Z,100.00
2018-12-25T04:55:32.371Z,100.00
2018-12-25T04:58:03.614Z,100.00
2018-12-25T05:00:34.877Z,100.00
2018-12-25T05:03:06.127Z,100.00
2018-12-25T05:05:37.378Z,100.00
2018-12-25T05:08:08.642Z,100.00
2018-12-25T05:10:39.871Z,100.00
2018-12-25T05:13:11.105Z,100.00
2018-12-25T05:15:42.354Z,100.00
2018-12-25T05:18:13.650Z,100.00
2018-12-25T05:20:44.906Z,100.00
2018-12-25T05:23:16.158Z,100.00
2018-12-25T05:25:47.438Z,100.00
2018-12-25T05:28:18.683Z,100.00
2018-12-25T05:30:49.935Z,100.00
2018-12-25T05:33:21.219Z,100.00
2018-12-25T05:35:52.388Z,100.00
2018-12-25T05:38:23.646Z,100.00
2018-12-25T05:40:54.898Z,100.00
2018-12-25T05:43:26.144Z,100.00
2018-12-25T05:45:57.347Z,100.00
2018-12-25T05:48:28.553Z,100.00
2018-12-25T05:50:59.816Z,100.00
2018-12-25T05:53:31.134Z,100.00
2018-12-25T05:56:02.339Z,100.00
2018-12-25T05:58:33.607Z,100.00
2018-12-25T06:01:04.867Z,100.00
2018-12-25T06:03:36.125Z,100.00
2018-12-25T06:06:07.368Z,100.00
2018-12-25T06:08:38.526Z,100.00
2018-12-25T06:11:09.815Z,100.00
2018-12-25T06:13:41.056Z,100.00
2018-12-25T06:16:12.263Z,100.00
2018-12-25T06:18:43.394Z,100.00
2018-12-25T06:21:14.706Z,100.00
2018-12-25T06:23:45.943Z,100.00
2018-12-25T06:26:17.221Z,100.00
2018-12-25T06:28:48.513Z,100.00
2018-12-25T06:31:21.420Z,100.00
2018-12-25T06:33:52.886Z,100.00
2018-12-25T06:36:24.059Z,100.00
2018-12-25T06:38:55.334Z,100.00
2018-12-25T06:41:26.598Z,100.00
2018-12-25T06:43:57.791Z,100.00
2018-12-25T06:46:29.011Z,100.00
2018-12-25T06:49:00.276Z,100.00
2018-12-25T06:51:31.542Z,100.00
2018-12-25T06:54:02.774Z,100.00
2018-12-25T06:56:34.166Z,100.00
2018-12-25T06:59:05.461Z,100.00
2018-12-25T07:01:36.698Z,100.00
2018-12-25T07:04:07.999Z,100.00
2018-12-25T07:06:39.226Z,100.00
2018-12-25T07:09:10.512Z,100.00
2018-12-25T07:11:41.792Z,100.00
2018-12-25T07:14:13.019Z,100.00
2018-12-25T07:16:44.380Z,100.00
2018-12-25T07:19:15.603Z,100.00
2018-12-25T07:21:47.186Z,100.00
2018-12-25T07:24:20.388Z,100.00
2018-12-25T07:26:51.404Z,100.00
2018-12-25T07:29:26.464Z,100.00
2018-12-25T07:31:57.654Z,100.00
2018-12-25T07:34:28.906Z,100.00
2018-12-25T07:37:00.228Z,100.00
2018-12-25T07:39:31.505Z,100.00
2018-12-25T07:42:02.737Z,100.00
2018-12-25T07:44:33.941Z,100.00
2018-12-25T07:47:05.229Z,100.00
2018-12-25T07:49:36.455Z,100.00
2018-12-25T07:54:36.770Z,100.00
2018-12-25T07:57:08.440Z,100.00
2018-12-25T07:59:39.712Z,100.00
2018-12-25T08:02:11.118Z,100.00
2018-12-25T08:04:42.382Z,100.00
2018-12-25T08:07:13.626Z,100.00
2018-12-25T08:09:45.040Z,100.00
2018-12-25T08:12:16.339Z,100.00
2018-12-25T08:14:47.564Z,100.00
2018-12-25T08:17:18.814Z,100.00
2018-12-25T08:19:50.005Z,100.00
2018-12-25T08:22:21.304Z,100.00
2018-12-25T08:24:52.627Z,100.00
2018-12-25T08:27:23.916Z,100.00
2018-12-25T08:29:55.241Z,100.00
2018-12-25T08:32:26.571Z,100.00
2018-12-25T08:34:57.934Z,100.00
2018-12-25T08:37:29.246Z,100.00
2018-12-25T08:40:00.626Z,100.00
2018-12-25T08:42:31.866Z,100.00
2018-12-25T08:45:03.235Z,100.00
2018-12-25T08:47:34.524Z,100.00
2018-12-25T08:50:08.320Z,100.00
2018-12-25T08:52:39.470Z,100.00
2018-12-25T08:55:10.859Z,100.00
2018-12-25T08:57:42.202Z,100.00
2018-12-25T09:00:15.212Z,100.00
2018-12-25T09:02:46.510Z,100.00
2018-12-25T09:05:17.772Z,100.00
2018-12-25T09:07:49.025Z,100.00
2018-12-25T09:10:20.349Z,100.00
2018-12-25T09:12:51.608Z,100.00
2018-12-25T09:15:22.908Z,100.00
2018-12-25T09:17:54.159Z,100.00
2018-12-25T09:20:25.342Z,100.00
2018-12-25T09:22:56.691Z,100.00
2018-12-25T09:25:27.981Z,100.00
2018-12-25T09:27:59.253Z,100.00
2018-12-25T09:30:30.585Z,100.00
2018-12-25T09:33:01.853Z,100.00
2018-12-25T09:35:33.116Z,100.00
2018-12-25T09:38:07.958Z,98.67
2018-12-25T09:40:39.176Z,99.45
2018-12-25T09:43:10.448Z,98.92
2018-12-25T09:45:41.634Z,99.53
2018-12-25T09:48:13.480Z,99.79
2018-12-25T09:50:44.989Z,100.00
2018-12-25T09:53:16.291Z,100.00
2018-12-25T09:55:47.442Z,98.28
2018-12-25T09:58:18.834Z,97.57
2018-12-25T10:00:50.121Z,97.58
2018-12-25T10:03:21.370Z,95.85
2018-12-25T10:05:52.552Z,94.42
2018-12-25T10:08:23.761Z,95.42
2018-12-25T10:10:55.097Z,93.03
2018-12-25T10:13:26.336Z,94.43
2018-12-25T10:15:57.654Z,95.27
2018-12-25T10:18:28.939Z,95.63
2018-12-25T10:21:00.293Z,94.68
2018-12-25T10:23:31.499Z,95.68
2018-12-25T10:26:02.788Z,95.30
2018-12-25T10:28:34.004Z,96.21
2018-12-25T10:31:05.332Z,96.30
2018-12-25T10:33:36.560Z,96.43
2018-12-25T10:36:07.819Z,96.45
2018-12-25T10:38:39.043Z,97.40
2018-12-25T10:41:10.246Z,97.05
2018-12-25T10:43:41.553Z,97.48
2018-12-25T10:46:12.800Z,95.59
2018-12-25T10:48:44.138Z,94.51
2018-12-25T10:51:15.391Z,94.70
2018-12-25T10:53:46.725Z,92.87
2018-12-25T10:56:18.123Z,94.08
2018-12-25T10:58:53.542Z,93.42
2018-12-25T11:01:36.289Z,93.07
2018-12-25T11:04:07.575Z,89.71
2018-12-25T11:06:38.811Z,90.89
2018-12-25T11:09:10.214Z,89.96
2018-12-25T11:11:41.359Z,92.63
2018-12-25T11:14:12.670Z,89.14
2018-12-25T11:16:44.063Z,88.98
2018-12-25T11:19:15.402Z,86.36
2018-12-25T11:21:46.776Z,85.08
2018-12-25T11:24:17.923Z,86.94
2018-12-25T11:26:49.210Z,86.76
2018-12-25T11:29:20.508Z,86.63
2018-12-25T11:31:51.787Z,86.71
2018-12-25T11:34:22.966Z,85.37
2018-12-25T11:36:54.202Z,83.70
2018-12-25T11:39:25.477Z,85.26
2018-12-25T11:41:56.745Z,85.61
2018-12-25T11:44:28.044Z,84.90
2018-12-25T11:46:59.234Z,85.29
2018-12-25T11:49:30.411Z,88.35
2018-12-25T11:52:01.716Z,86.66
2018-12-25T11:54:32.920Z,87.34
2018-12-25T11:57:04.307Z,86.59
2018-12-25T11:59:35.455Z,85.25
2018-12-25T12:02:06.886Z,84.94
2018-12-25T12:04:38.163Z,82.69
2018-12-25T12:07:09.427Z,86.32
2018-12-25T12:09:40.678Z,83.37
2018-12-25T12:12:12.036Z,84.00
2018-12-25T12:14:43.296Z,85.42
2018-12-25T12:17:17.697Z,83.33
2018-12-25T12:19:48.915Z,82.96
2018-12-25T12:22:20.061Z,82.62
2018-12-25T12:24:51.410Z,84.67
2018-12-25T12:27:22.785Z,84.82
2018-12-25T12:29:54.165Z,83.87
2018-12-25T12:32:25.378Z,84.27
2018-12-25T12:34:56.707Z,81.47
2018-12-25T12:37:27.939Z,81.90
2018-12-25T12:39:59.232Z,82.75
2018-12-25T12:42:30.498Z,82.80
2018-12-25T12:45:01.851Z,81.28
2018-12-25T12:47:33.138Z,82.41
2018-12-25T12:50:04.438Z,84.57
2018-12-25T12:52:35.713Z,84.70
2018-12-25T12:55:07.172Z,85.40
2018-12-25T12:57:39.929Z,84.95
2018-12-25T13:00:11.568Z,86.14
2018-12-25T13:02:42.901Z,87.88
2018-12-25T13:05:14.239Z,89.51
2018-12-25T13:07:45.489Z,89.08
2018-12-25T13:10:16.809Z,87.90
2018-12-25T13:12:48.024Z,87.63
2018-12-25T13:15:19.289Z,87.00
2018-12-25T13:17:50.581Z,86.30
2018-12-25T13:20:21.845Z,85.16
2018-12-25T13:22:54.180Z,88.79
2018-12-25T13:25:25.793Z,88.11
2018-12-25T13:27:57.118Z,86.98
2018-12-25T13:30:28.399Z,86.94
2018-12-25T13:32:59.687Z,87.74
2018-12-25T13:35:31.000Z,87.98
2018-12-25T13:38:02.158Z,87.05
2018-12-25T13:40:33.367Z,87.92
2018-12-25T13:43:04.731Z,87.66
2018-12-25T13:45:35.958Z,87.05
2018-12-25T13:48:07.235Z,88.09
2018-12-25T13:50:38.551Z,88.60
2018-12-25T13:53:09.769Z,88.42
2018-12-25T13:55:41.031Z,89.16
2018-12-25T13:58:12.218Z,89.01
2018-12-25T14:00:43.465Z,87.54
2018-12-25T14:03:14.753Z,87.24
2018-12-25T14:05:46.041Z,89.00
2018-12-25T14:08:17.257Z,89.79
2018-12-25T14:10:48.475Z,90.04
2018-12-25T14:13:19.738Z,90.41
2018-12-25T14:15:50.938Z,88.80
2018-12-25T14:18:22.317Z,88.82
2018-12-25T14:20:53.562Z,89.91
2018-12-25T14:23:24.781Z,87.93
2018-12-25T14:25:56.052Z,88.01
2018-12-25T14:28:27.256Z,88.66
2018-12-25T14:30:58.571Z,90.26
2018-12-25T14:33:29.891Z,91.45
2018-12-25T14:36:01.186Z,90.18
2018-12-25T14:38:32.461Z,91.23
2018-12-25T14:41:03.814Z,92.47
2018-12-25T14:43:35.066Z,93.08
2018-12-25T14:46:06.243Z,93.16
2018-12-25T14:48:37.473Z,93.75
2018-12-25T14:51:08.745Z,92.81
2018-12-25T14:53:40.011Z,93.99
2018-12-25T14:56:11.202Z,93.77
2018-12-25T14:58:42.373Z,94.01
2018-12-25T15:01:13.647Z,94.58
2018-12-25T15:03:44.888Z,95.27
2018-12-25T15:06:16.228Z,95.16
2018-12-25T15:08:47.474Z,95.25
2018-12-25T15:11:18.727Z,95.40
2018-12-25T15:13:50.034Z,96.46
2018-12-25T15:16:21.268Z,92.89
2018-12-25T15:18:52.528Z,92.02
2018-12-25T15:21:23.764Z,91.85
2018-12-25T15:23:54.993Z,91.20
2018-12-25T15:26:26.346Z,92.61
2018-12-25T15:28:57.579Z,93.78
2018-12-25T15:31:28.842Z,93.00
2018-12-25T15:34:00.079Z,93.07
2018-12-25T15:36:31.362Z,92.42
2018-12-25T15:39:02.656Z,93.04
2018-12-25T15:41:33.885Z,93.02
2018-12-25T15:44:05.155Z,92.70
2018-12-25T15:46:36.405Z,92.87
2018-12-25T15:49:07.632Z,90.50
2018-12-25T15:51:38.897Z,91.78
2018-12-25T15:54:10.025Z,92.63
2018-12-25T15:56:41.354Z,92.11
2018-12-25T15:59:12.516Z,93.19
2018-12-25T16:01:43.803Z,93.67
2018-12-25T16:04:15.171Z,92.45
2018-12-25T16:06:46.365Z,92.74
2018-12-25T16:09:17.573Z,93.55
2018-12-25T16:11:48.805Z,93.42
2018-12-25T16:14:20.109Z,92.84
2018-12-25T16:16:51.340Z,93.36
2018-12-25T16:19:22.652Z,93.45
2018-12-25T16:21:53.812Z,91.88
2018-12-25T16:24:27.583Z,91.64
2018-12-25T16:26:58.073Z,92.38
2018-12-25T16:29:30.836Z,93.66
2018-12-25T16:32:02.110Z,92.80
2018-12-25T16:34:33.412Z,91.34
2018-12-25T16:37:04.657Z,93.54
2018-12-25T16:39:35.950Z,94.28
2018-12-25T16:42:07.169Z,94.26
2018-12-25T16:44:38.466Z,92.95
2018-12-25T16:47:09.883Z,92.53
2018-12-25T16:49:41.192Z,92.99
2018-12-25T16:52:12.488Z,92.69
2018-12-25T16:54:43.796Z,92.15
2018-12-25T16:57:15.103Z,92.02
2018-12-25T16:59:46.457Z,93.03
2018-12-25T17:02:17.795Z,91.43
2018-12-25T17:04:49.222Z,92.31
2018-12-25T17:07:20.655Z,91.80
2018-12-25T17:09:51.993Z,92.08
2018-12-25T17:12:23.315Z,92.61
2018-12-25T17:14:56.234Z,93.14
2018-12-25T17:17:27.540Z,92.43
2018-12-25T17:19:59.007Z,92.75
2018-12-25T17:22:30.476Z,92.55
2018-12-25T17:25:01.753Z,92.61
2018-12-25T17:27:33.033Z,93.84
2018-12-25T17:30:04.484Z,94.07
2018-12-25T17:32:35.859Z,92.88
2018-12-25T17:35:07.132Z,92.84
2018-12-25T17:37:38.478Z,92.76
2018-12-25T17:40:09.946Z,93.36
2018-12-25T17:42:41.367Z,94.67
2018-12-25T17:45:12.598Z,94.23
2018-12-25T17:47:43.907Z,93.88
2018-12-25T17:50:15.163Z,92.26
2018-12-25T17:52:46.460Z,92.51
2018-12-25T17:55:17.642Z,92.11
2018-12-25T17:57:48.859Z,93.06
2018-12-25T18:00:20.178Z,92.47
2018-12-25T18:02:51.517Z,92.43
2018-12-25T18:05:22.892Z,90.77
2018-12-25T18:07:54.380Z,93.88
2018-12-25T18:10:25.819Z,93.03
2018-12-25T18:12:57.099Z,92.62
2018-12-25T18:15:28.530Z,92.41
2018-12-25T18:18:00.002Z,93.56
2018-12-25T18:20:31.376Z,94.04
2018-12-25T18:23:02.882Z,94.17
2018-12-25T18:25:34.334Z,94.68
2018-12-25T18:28:05.779Z,93.96
2018-12-25T18:30:37.167Z,93.62
2018-12-25T18:33:08.667Z,93.49
2018-12-25T18:35:40.027Z,94.01
2018-12-25T18:38:11.570Z,95.25
2018-12-25T18:40:43.120Z,94.98
2018-12-25T18:43:14.330Z,94.98
2018-12-25T18:45:45.653Z,95.80
2018-12-25T18:48:17.100Z,97.00
2018-12-25T18:50:48.312Z,98.46
2018-12-25T18:53:22.495Z,99.29
2018-12-25T18:55:56.518Z,99.56
2018-12-25T18:58:28.011Z,100.00
2018-12-25T19:00:59.580Z,100.00
2018-12-25T19:03:30.937Z,100.00
2018-12-25T19:06:02.122Z,100.00
2018-12-25T19:08:33.449Z,100.00
2018-12-25T19:11:04.760Z,100.00
2018-12-25T19:13:36.413Z,100.00
2018-12-25T19:16:08.554Z,100.00
2018-12-25T19:18:39.803Z,100.00
2018-12-25T19:21:11.126Z,100.00
2018-12-25T19:23:53.491Z,100.00
2018-12-25T19:26:24.856Z,100.00
2018-12-25T19:28:56.341Z,100.00
2018-12-25T19:31:27.666Z,100.00
2018-12-25T19:33:58.892Z,100.00
2018-12-25T19:36:30.284Z,100.00
2018-12-25T19:39:01.434Z,100.00
2018-12-25T19:41:32.727Z,100.00
2018-12-25T19:44:03.990Z,100.00
2018-12-25T19:46:35.310Z,100.00
2018-12-25T19:49:06.645Z,100.00
2018-12-25T19:51:37.889Z,100.00
2018-12-25T19:54:09.242Z,100.00
2018-12-25T19:56:40.497Z,100.00
2018-12-25T19:59:12.072Z,100.00
2018-12-25T20:01:43.258Z,100.00
2018-12-25T20:05:09.263Z,100.00
2018-12-25T20:08:47.976Z,100.00
2018-12-25T20:12:06.230Z,100.00
2018-12-25T20:15:34.430Z,100.00
2018-12-25T20:19:02.935Z,100.00
2018-12-25T20:22:33.282Z,100.00
2018-12-25T20:26:06.191Z,100.00
2018-12-25T20:29:27.594Z,100.00
2018-12-25T20:33:07.204Z,100.00
2018-12-25T20:39:08.999Z,100.00
2018-12-25T20:42:39.993Z,100.00
2018-12-25T20:46:16.632Z,100.00
2018-12-25T20:49:22.326Z,100.00
2018-12-25T20:53:10.472Z,100.00
2018-12-25T20:56:41.681Z,100.00
2018-12-25T21:00:21.342Z,100.00
2018-12-25T21:03:56.795Z,100.00
2018-12-25T21:07:23.799Z,100.00
2018-12-25T21:10:47.841Z,100.00
2018-12-25T21:14:24.485Z,100.00
2018-12-25T21:18:05.012Z,100.00
2018-12-25T21:21:38.668Z,100.00
2018-12-25T21:25:09.768Z,100.00
2018-12-25T21:27:34.218Z,100.00
2018-12-25T21:30:11.006Z,100.00
2018-12-25T21:32:44.455Z,100.00
2018-12-25T21:35:34.912Z,100.00
2018-12-25T21:38:06.770Z,100.00
2018-12-25T21:40:38.735Z,100.00
2018-12-25T21:43:10.421Z,100.00
2018-12-25T21:45:41.847Z,100.00
2018-12-25T21:48:13.558Z,100.00
2018-12-25T21:50:45.151Z,100.00
2018-12-25T21:53:16.523Z,100.00
2018-12-25T21:55:48.007Z,100.00
2018-12-25T21:58:19.839Z,100.00
2018-12-25T22:00:51.615Z,100.00
2018-12-25T22:03:23.141Z,100.00
2018-12-25T22:05:54.472Z,100.00
2018-12-25T22:08:25.829Z,100.00
2018-12-25T22:10:57.151Z,100.00
2018-12-25T22:13:28.434Z,100.00
2018-12-25T22:15:59.734Z,100.00
2018-12-25T22:18:31.029Z,100.00
2018-12-25T22:21:02.305Z,100.00
2018-12-25T22:23:33.660Z,100.00
2018-12-25T22:26:05.026Z,100.00
2018-12-25T22:28:36.531Z,100.00
2018-12-25T22:31:08.012Z,100.00
2018-12-25T22:33:39.362Z,100.00
2018-12-25T22:36:10.682Z,100.00
2018-12-25T22:38:42.055Z,100.00
2018-12-25T22:41:13.444Z,100.00
2018-12-25T22:43:44.713Z,100.00
2018-12-25T22:46:16.065Z,100.00
2018-12-25T22:48:47.452Z,100.00
2018-12-25T22:51:18.861Z,100.00
2018-12-25T22:53:50.235Z,100.00
2018-12-25T22:56:21.661Z,100.00
2018-12-25T22:58:52.993Z,100.00
2018-12-25T23:01:24.423Z,100.00
2018-12-25T23:03:55.805Z,100.00
2018-12-25T23:06:27.167Z,100.00
2018-12-25T23:08:58.450Z,100.00
2018-12-25T23:11:29.724Z,100.00
2018-12-25T23:14:01.143Z,100.00
2018-12-25T23:16:32.410Z,100.00
2018-12-25T23:19:03.752Z,100.00
2018-12-25T23:21:35.042Z,100.00
2018-12-25T23:24:06.395Z,100.00
2018-12-25T23:26:37.625Z,100.00
2018-12-25T23:29:08.981Z,100.00
2018-12-25T23:31:40.170Z,100.00
2018-12-25T23:34:11.455Z,100.00
2018-12-25T23:36:42.757Z,100.00
2018-12-25T23:39:14.152Z,100.00
2018-12-25T23:41:45.463Z,100.00
2018-12-25T23:44:16.649Z,100.00
2018-12-25T23:46:47.918Z,100.00
2018-12-25T23:49:19.161Z,100.00
2018-12-25T23:51:50.426Z,100.00
2018-12-25T23:54:21.702Z,100.00
2018-12-25T23:56:52.994Z,100.00
2018-12-25T23:59:24.245Z,100.00
